Time;durP1;ratioP1;P1;durP2;ratioP2;P2;SDS_P1;SDS_P2;PMS_P1;PMS_P2;Temp;Humidity;BMP_temperature;BMP_pressure;BME280_temperature;BME280_humidity;BME280_pressure;Samples;Min_cycle;Max_cycle;Signal;HPM_P1;HPM_P2
2023/03/17 00:00:12;;;;;;;1.60;1.50;;;5.60;99.90;;;;;;5032063;28;20475;-83
2023/03/17 00:02:41;;;;;;;3.25;1.70;;;5.60;99.90;;;;;;5022925;28;20398;-83
2023/03/17 00:05:23;;;;;;;1.90;1.40;;;5.60;99.90;;;;;;5022032;28;20820;-84
2023/03/17 00:07:50;;;;;;;2.15;1.40;;;5.60;99.90;;;;;;5014522;28;20762;-84
2023/03/17 00:10:25;;;;;;;1.77;1.40;;;5.50;99.90;;;;;;5040444;28;20411;-84
2023/03/17 00:12:52;;;;;;;1.90;1.60;;;5.50;99.90;;;;;;5040406;28;20783;-84
2023/03/17 00:15:19;;;;;;;2.50;1.67;;;5.50;99.90;;;;;;5041157;28;20395;-85
2023/03/17 00:17:46;;;;;;;1.40;1.30;;;5.50;99.90;;;;;;5040808;28;20468;-83
2023/03/17 00:20:27;;;;;;;2.92;1.52;;;5.40;1.00;;;;;;5022666;28;20392;-83
2023/03/17 00:23:03;;;;;;;2.10;1.60;;;5.40;1.00;;;;;;5024124;28;20402;-83
2023/03/17 00:25:32;;;;;;;1.80;1.60;;;7.20;1.00;;;;;;5023452;28;20413;-85
2023/03/17 00:27:59;;;;;;;1.50;1.30;;;5.40;1.00;;;;;;5014626;28;20381;-83
2023/03/17 00:30:26;;;;;;;1.38;1.25;;;5.40;99.90;;;;;;5022973;28;20417;-83
2023/03/17 00:32:56;;;;;;;2.50;1.40;;;5.40;99.90;;;;;;5040851;28;20383;-83
2023/03/17 00:35:24;;;;;;;4.18;1.40;;;5.40;99.90;;;;;;5045929;28;20387;-82
2023/03/17 00:37:51;;;;;;;2.10;1.60;;;6.50;1.00;;;;;;5046739;28;20382;-83
2023/03/17 00:40:28;;;;;;;1.50;1.30;;;5.40;99.90;;;;;;5023477;28;20525;-83
2023/03/17 00:42:53;;;;;;;2.27;1.50;;;5.50;99.90;;;;;;5040644;28;20610;-83
2023/03/17 00:45:20;;;;;;;1.70;1.40;;;5.50;99.90;;;;;;5022600;28;20802;-84
2023/03/17 00:47:46;;;;;;;1.50;1.17;;;5.60;13.10;;;;;;5040095;28;20470;-84
2023/03/17 00:50:17;;;;;;;1.38;1.10;;;5.70;99.90;;;;;;5041226;28;20892;-83
2023/03/17 00:52:45;;;;;;;1.40;1.23;;;5.70;99.90;;;;;;5022583;28;20379;-84
2023/03/17 00:55:11;;;;;;;1.60;1.30;;;5.90;1.00;;;;;;5019439;28;20399;-83
2023/03/17 00:57:39;;;;;;;1.80;1.30;;;5.90;1.00;;;;;;5007573;28;20405;-84
2023/03/17 01:00:06;;;;;;;1.20;0.90;;;6.00;1.30;;;;;;5001871;28;20412;-84
2023/03/17 01:02:32;;;;;;;2.70;1.42;;;6.00;99.90;;;;;;5002044;28;20560;-83
2023/03/17 01:04:59;;;;;;;1.08;1.00;;;6.10;47.30;;;;;;5019609;28;20429;-84
2023/03/17 01:07:27;;;;;;;2.90;1.20;;;6.10;1.00;;;;;;5009610;28;20918;-84
2023/03/17 01:09:53;;;;;;;2.80;1.38;;;6.20;1.00;;;;;;5037347;28;20423;-83
2023/03/17 01:12:19;;;;;;;2.45;1.70;;;6.20;99.90;;;;;;5063840;22;20807;-74
2023/03/17 01:14:45;;;;;;;1.40;1.13;;;6.20;1.00;;;;;;5032732;28;20842;-75
2023/03/17 01:17:14;;;;;;;1.30;1.02;;;6.30;99.90;;;;;;5032438;28;20390;-74
2023/03/17 01:19:39;;;;;;;3.80;1.50;;;6.30;7.00;;;;;;5050327;28;20456;-74
2023/03/17 01:22:05;;;;;;;2.10;1.20;;;6.10;1.00;;;;;;5042639;28;20479;-75
2023/03/17 01:24:32;;;;;;;1.90;1.70;;;6.00;99.90;;;;;;5030545;28;20382;-74
2023/03/17 01:26:57;;;;;;;1.80;1.30;;;6.00;45.60;;;;;;5029485;28;20470;-75
2023/03/17 01:29:23;;;;;;;2.30;1.40;;;5.90;99.90;;;;;;5030118;28;20499;-74
2023/03/17 01:31:48;;;;;;;1.30;1.20;;;5.70;1.00;;;;;;5012851;28;20395;-74
2023/03/17 01:34:14;;;;;;;2.00;1.63;;;5.70;1.00;;;;;;5030268;28;20405;-75
2023/03/17 01:36:40;;;;;;;2.17;1.30;;;5.70;1.00;;;;;;5030001;28;20387;-75
2023/03/17 01:39:06;;;;;;;1.20;1.10;;;5.70;99.90;;;;;;5030198;28;20399;-75
2023/03/17 01:41:33;;;;;;;1.80;1.10;;;5.70;99.90;;;;;;5025389;28;20397;-74
2023/03/17 01:43:59;;;;;;;1.40;1.30;;;5.70;99.90;;;;;;5027205;28;20750;-75
2023/03/17 01:46:32;;;;;;;1.30;1.20;;;5.70;1.00;;;;;;5012304;28;20395;-75
2023/03/17 01:49:20;;;;;;;3.58;1.20;;;5.60;99.90;;;;;;5012397;28;20490;-75
2023/03/17 01:51:52;;;;;;;2.10;1.10;;;5.70;1.00;;;;;;5028891;28;21000;-76
2023/03/17 01:54:38;;;;;;;2.58;1.20;;;5.50;1.00;;;;;;5030240;28;20414;-75
2023/03/17 01:57:27;;;;;;;2.15;1.67;;;5.60;1.00;;;;;;5023831;28;21088;-75
2023/03/17 01:59:58;;;;;;;1.00;0.90;;;5.70;1.00;;;;;;5018363;28;20397;-76
2023/03/17 02:02:34;;;;;;;1.73;1.20;;;5.70;1.00;;;;;;5010442;28;20476;-75
2023/03/17 02:05:02;;;;;;;1.55;1.30;;;5.60;1.00;;;;;;5018689;28;20458;-75
2023/03/17 02:07:28;;;;;;;1.50;1.30;;;5.40;1.00;;;;;;5021407;28;20386;-75
2023/03/17 02:09:55;;;;;;;1.70;1.40;;;5.40;1.00;;;;;;5029487;28;20493;-75
2023/03/17 02:12:23;;;;;;;1.77;1.30;;;5.40;1.00;;;;;;5029939;28;20399;-75
2023/03/17 02:14:49;;;;;;;1.38;1.27;;;5.50;1.00;;;;;;5026188;28;20391;-76
2023/03/17 02:17:14;;;;;;;1.90;1.50;;;5.40;1.00;;;;;;5029647;28;20375;-75
2023/03/17 02:19:41;;;;;;;3.37;1.70;;;5.30;1.00;;;;;;5030003;28;20394;-75
2023/03/17 02:22:07;;;;;;;2.50;1.40;;;5.40;1.00;;;;;;5025907;28;20391;-75
2023/03/17 02:24:37;;;;;;;2.90;1.30;;;5.40;1.00;;;;;;5011991;28;20407;-75
2023/03/17 02:27:17;;;;;;;1.60;1.50;;;5.30;1.00;;;;;;5029146;28;20401;-75
2023/03/17 02:29:45;;;;;;;1.90;1.63;;;5.20;1.00;;;;;;5029820;28;20457;-75
2023/03/17 02:32:12;;;;;;;1.90;1.50;;;5.20;1.00;;;;;;5029920;28;20726;-75
2023/03/17 02:34:38;;;;;;;2.75;1.85;;;5.20;1.00;;;;;;5029710;28;20378;-75
2023/03/17 02:37:05;;;;;;;3.58;1.60;;;5.30;1.00;;;;;;5029501;28;20391;-75
2023/03/17 02:39:31;;;;;;;2.47;1.80;;;5.20;1.00;;;;;;5029543;28;20453;-75
2023/03/17 02:41:56;;;;;;;1.85;1.58;;;5.20;1.00;;;;;;5029183;28;20884;-75
2023/03/17 02:44:22;;;;;;;2.40;1.60;;;5.30;1.00;;;;;;5029776;28;20753;-75
2023/03/17 02:46:48;;;;;;;2.15;1.70;;;5.20;1.00;;;;;;5029419;28;20383;-75
2023/03/17 02:49:14;;;;;;;3.20;1.60;;;5.20;1.00;;;;;;5029623;28;20900;-75
2023/03/17 02:51:40;;;;;;;1.80;1.50;;;5.10;1.00;;;;;;5029218;28;20399;-75
2023/03/17 02:54:06;;;;;;;2.25;1.40;;;4.90;1.00;;;;;;5029834;28;20391;-76
2023/03/17 02:56:31;;;;;;;3.35;1.70;;;4.80;15.20;;;;;;5023919;28;20425;-75
2023/03/17 02:58:57;;;;;;;2.40;1.60;;;4.70;47.30;;;;;;5018390;28;20737;-75
2023/03/17 03:01:25;;;;;;;2.72;1.38;;;4.60;76.40;;;;;;5029400;28;20444;-75
2023/03/17 03:03:51;;;;;;;2.80;1.35;;;4.70;10.50;;;;;;5032870;28;20415;-75
2023/03/17 03:06:16;;;;;;;3.53;1.10;;;4.80;30.00;;;;;;5015400;28;20390;-75
2023/03/17 03:08:42;;;;;;;1.20;1.10;;;4.80;1.00;;;;;;5015395;28;21020;-75
2023/03/17 03:11:08;;;;;;;1.90;1.20;;;4.80;1.00;;;;;;5033078;28;20375;-75
2023/03/17 03:13:33;;;;;;;2.30;1.20;;;4.80;14.60;;;;;;5032936;28;20436;-75
2023/03/17 03:15:59;;;;;;;1.80;1.20;;;4.70;19.20;;;;;;5032380;28;20466;-76
2023/03/17 03:18:24;;;;;;;2.40;1.40;;;4.70;73.00;;;;;;5032980;28;20382;-75
2023/03/17 03:20:50;;;;;;;2.40;1.20;;;4.70;20.60;;;;;;5032910;28;20427;-75
2023/03/17 03:23:16;;;;;;;2.20;1.10;;;4.70;5.60;;;;;;5032894;28;20465;-75
2023/03/17 03:25:41;;;;;;;1.50;1.20;;;4.60;99.90;;;;;;5032433;28;20425;-76
2023/03/17 03:28:08;;;;;;;2.03;1.30;;;4.60;68.90;;;;;;5032460;28;20478;-75
2023/03/17 03:30:36;;;;;;;2.17;1.33;;;4.60;19.30;;;;;;5032730;28;20407;-75
2023/03/17 03:33:01;;;;;;;1.60;1.20;;;4.60;38.10;;;;;;5032559;28;20383;-75
2023/03/17 03:35:28;;;;;;;2.10;1.33;;;4.70;26.00;;;;;;5032349;28;20919;-75
2023/03/17 03:37:55;;;;;;;2.05;0.95;;;4.60;83.90;;;;;;5032470;28;20390;-76
2023/03/17 03:40:21;;;;;;;2.13;1.60;;;4.60;56.40;;;;;;5032551;28;20387;-75
2023/03/17 03:42:47;;;;;;;3.50;1.20;;;4.60;59.20;;;;;;5032088;28;20395;-75
2023/03/17 03:45:12;;;;;;;1.73;1.00;;;4.70;1.00;;;;;;5031650;28;20391;-75
2023/03/17 03:47:38;;;;;;;1.60;1.20;;;4.70;17.50;;;;;;5031864;28;20482;-76
2023/03/17 03:50:04;;;;;;;1.10;1.00;;;4.80;25.00;;;;;;5032376;28;20446;-75
2023/03/17 03:52:29;;;;;;;2.10;1.00;;;4.70;9.60;;;;;;5032176;28;20422;-75
2023/03/17 03:54:55;;;;;;;2.20;1.10;;;4.70;1.00;;;;;;5032167;28;20746;-75
2023/03/17 03:57:20;;;;;;;1.17;1.08;;;4.80;17.20;;;;;;5030929;28;20421;-75
2023/03/17 03:59:46;;;;;;;1.85;1.23;;;4.80;1.00;;;;;;5031593;28;20957;-75
2023/03/17 04:02:11;;;;;;;1.63;1.20;;;4.70;1.00;;;;;;5032088;28;20394;-76
2023/03/17 04:04:37;;;;;;;1.52;1.30;;;4.70;1.00;;;;;;5014597;28;20406;-75
2023/03/17 04:07:02;;;;;;;1.65;1.02;;;4.70;1.00;;;;;;5014088;28;20773;-75
2023/03/17 04:09:28;;;;;;;1.20;1.00;;;4.70;1.00;;;;;;5031872;28;20403;-75
2023/03/17 04:11:54;;;;;;;1.90;1.00;;;4.80;1.00;;;;;;5031538;28;20448;-75
2023/03/17 04:14:19;;;;;;;1.70;1.30;;;4.70;1.00;;;;;;5030962;28;20749;-74
2023/03/17 04:16:45;;;;;;;1.65;1.30;;;4.70;1.00;;;;;;5014467;28;20401;-75
2023/03/17 04:19:10;;;;;;;1.23;1.13;;;4.70;1.00;;;;;;5031840;28;20494;-75
2023/03/17 04:21:36;;;;;;;0.80;0.80;;;4.70;1.00;;;;;;5031625;28;20793;-75
2023/03/17 04:24:04;;;;;;;0.80;0.80;;;4.60;1.00;;;;;;5013905;28;20734;-75
2023/03/17 04:26:30;;;;;;;2.10;0.85;;;4.60;1.00;;;;;;5012985;28;20396;-76
2023/03/17 04:28:56;;;;;;;1.40;1.10;;;4.60;1.00;;;;;;5031529;28;20495;-75
2023/03/17 04:31:22;;;;;;;2.60;1.00;;;4.70;1.00;;;;;;5013797;28;20406;-75
2023/03/17 04:33:47;;;;;;;2.60;1.00;;;4.60;1.00;;;;;;5031757;28;20752;-76
2023/03/17 04:36:18;;;;;;;1.60;1.00;;;4.70;1.00;;;;;;5013793;28;20422;-76
2023/03/17 04:38:43;;;;;;;2.70;1.20;;;4.70;1.00;;;;;;5031444;28;20406;-75
2023/03/17 04:41:10;;;;;;;1.40;1.08;;;4.80;1.00;;;;;;5014035;28;20756;-75
2023/03/17 04:43:35;;;;;;;1.65;1.00;;;4.80;1.00;;;;;;5013822;28;20413;-76
2023/03/17 04:46:01;;;;;;;1.92;1.10;;;4.80;1.00;;;;;;5031259;28;20391;-76
2023/03/17 04:48:27;;;;;;;1.50;1.10;;;4.80;1.00;;;;;;5031819;28;20387;-75
2023/03/17 04:50:52;;;;;;;3.10;1.20;;;4.70;1.00;;;;;;5013556;28;20441;-76
2023/03/17 04:53:18;;;;;;;1.63;0.90;;;4.70;1.00;;;;;;5013543;28;20452;-75
2023/03/17 04:55:44;;;;;;;1.40;0.90;;;4.80;1.00;;;;;;5031186;28;20391;-75
2023/03/17 04:58:09;;;;;;;1.27;1.10;;;4.80;1.00;;;;;;5031281;28;20853;-75
2023/03/17 05:00:37;;;;;;;1.87;0.90;;;4.70;1.00;;;;;;5031348;28;20387;-75
2023/03/17 05:03:05;;;;;;;2.17;1.00;;;4.70;1.00;;;;;;5030732;28;20768;-75
2023/03/17 05:05:30;;;;;;;0.93;0.80;;;4.80;1.00;;;;;;5030809;28;20764;-76
2023/03/17 05:07:56;;;;;;;1.10;0.80;;;4.80;1.00;;;;;;5031070;28;20395;-76
2023/03/17 05:10:21;;;;;;;1.10;0.80;;;4.80;1.00;;;;;;5031198;28;20422;-75
2023/03/17 05:12:47;;;;;;;0.90;0.80;;;4.80;1.00;;;;;;5030868;28;20889;-75
2023/03/17 05:15:13;;;;;;;1.97;1.10;;;4.80;1.00;;;;;;5013174;28;20757;-75
2023/03/17 05:17:38;;;;;;;1.30;1.10;;;4.80;1.00;;;;;;5013241;28;20888;-75
2023/03/17 05:20:04;;;;;;;2.03;1.10;;;4.70;1.00;;;;;;5031004;28;20383;-75
2023/03/17 05:22:30;;;;;;;2.00;1.20;;;4.70;1.00;;;;;;5012312;28;20494;-75
2023/03/17 05:24:56;;;;;;;1.10;0.90;;;4.70;1.00;;;;;;5012854;28;20482;-75
2023/03/17 05:27:22;;;;;;;1.60;1.10;;;4.80;1.00;;;;;;5029804;28;20829;-75
2023/03/17 05:29:47;;;;;;;2.22;1.25;;;4.80;1.00;;;;;;5013094;28;20409;-75
2023/03/17 05:32:13;;;;;;;2.50;0.80;;;4.90;1.00;;;;;;5030635;28;20387;-75
2023/03/17 05:34:38;;;;;;;1.23;1.13;;;5.00;1.00;;;;;;5012862;28;20466;-75
2023/03/17 05:37:04;;;;;;;1.30;1.20;;;4.90;1.00;;;;;;5012406;28;20413;-75
2023/03/17 05:39:30;;;;;;;1.50;1.20;;;4.90;1.00;;;;;;5030414;28;20395;-75
2023/03/17 05:41:56;;;;;;;1.50;1.05;;;4.90;1.00;;;;;;5012809;28;20793;-75
2023/03/17 05:44:22;;;;;;;1.48;1.00;;;4.90;1.00;;;;;;5030612;28;20871;-75
2023/03/17 05:46:47;;;;;;;1.37;1.27;;;4.80;1.00;;;;;;5030339;28;20440;-75
2023/03/17 05:49:13;;;;;;;2.38;1.70;;;4.80;1.00;;;;;;5031008;28;20776;-75
2023/03/17 05:51:38;;;;;;;1.60;1.17;;;4.90;1.00;;;;;;5030466;28;20391;-75
2023/03/17 05:54:04;;;;;;;3.75;1.23;;;4.90;1.00;;;;;;5029888;28;20403;-75
2023/03/17 05:56:32;;;;;;;1.83;1.10;;;5.00;1.00;;;;;;5029368;28;20406;-76
2023/03/17 05:58:59;;;;;;;1.83;1.10;;;5.00;1.00;;;;;;5009273;28;20389;-76
2023/03/17 06:01:26;;;;;;;2.70;1.00;;;5.00;1.00;;;;;;5010683;28;20471;-75
2023/03/17 06:03:51;;;;;;;1.20;1.00;;;5.00;1.00;;;;;;5010763;28;20879;-77
2023/03/17 06:06:17;;;;;;;1.75;1.20;;;5.00;1.00;;;;;;5029747;28;20389;-75
2023/03/17 06:08:43;;;;;;;2.17;1.00;;;5.10;1.00;;;;;;5026792;28;20475;-75
2023/03/17 06:11:09;;;;;;;2.20;1.00;;;5.10;1.00;;;;;;5030133;28;20395;-76
2023/03/17 06:13:35;;;;;;;1.90;1.50;;;5.20;1.00;;;;;;5030239;28;20399;-76
2023/03/17 06:16:01;;;;;;;2.00;1.40;;;5.30;99.90;;;;;;5012310;28;20385;-76
2023/03/17 06:18:26;;;;;;;1.80;1.50;;;5.40;99.90;;;;;;5030167;28;20395;-75
2023/03/17 06:20:52;;;;;;;1.87;1.20;;;5.50;99.90;;;;;;5031386;28;20542;-77
2023/03/17 06:23:18;;;;;;;1.58;1.30;;;5.60;54.10;;;;;;5012588;28;20475;-76
2023/03/17 06:25:43;;;;;;;1.50;1.40;;;5.60;99.90;;;;;;5029767;28;20777;-76
2023/03/17 06:28:09;;;;;;;3.00;1.67;;;5.60;99.90;;;;;;5012621;28;20395;-76
2023/03/17 06:30:36;;;;;;;1.90;1.40;;;5.60;99.90;;;;;;5029837;28;20398;-76
2023/03/17 06:33:02;;;;;;;1.60;1.30;;;5.70;1.00;;;;;;5012101;28;20477;-76
2023/03/17 06:35:28;;;;;;;1.77;1.60;;;5.70;99.90;;;;;;5010079;28;20476;-78
2023/03/17 06:37:54;;;;;;;2.80;1.70;;;5.60;99.90;;;;;;5018857;28;20392;-77
2023/03/17 06:40:20;;;;;;;2.40;1.45;;;5.80;99.90;;;;;;5014128;28;20890;-76
2023/03/17 06:42:45;;;;;;;1.38;1.27;;;5.80;99.90;;;;;;5014100;28;20388;-76
2023/03/17 06:45:11;;;;;;;1.50;1.40;;;6.00;75.10;;;;;;5028101;28;20897;-76
2023/03/17 06:47:37;;;;;;;1.50;1.30;;;6.10;99.90;;;;;;5033648;28;20462;-76
2023/03/17 06:50:03;;;;;;;2.30;1.70;;;6.20;1.00;;;;;;5033418;28;20442;-76
2023/03/17 06:52:29;;;;;;;1.70;1.40;;;6.30;99.90;;;;;;5033736;28;20428;-76
2023/03/17 06:54:55;;;;;;;1.50;1.40;;;6.40;99.90;;;;;;5015980;28;20792;-76
2023/03/17 06:57:20;;;;;;;4.38;1.88;;;6.50;1.00;;;;;;5021401;28;20439;-76
2023/03/17 06:59:46;;;;;;;2.70;1.67;;;6.60;1.00;;;;;;5013710;28;20389;-76
2023/03/17 07:02:11;;;;;;;1.90;1.52;;;6.70;99.90;;;;;;5014341;28;20449;-75
2023/03/17 07:04:37;;;;;;;2.80;1.90;;;6.80;99.90;;;;;;5033336;28;20419;-76
2023/03/17 07:07:05;;;;;;;3.10;1.93;;;6.90;93.40;;;;;;5033157;28;20395;-77
2023/03/17 07:09:34;;;;;;;2.85;2.03;;;6.90;99.90;;;;;;5033284;28;20465;-76
2023/03/17 07:12:04;;;;;;;4.30;2.57;;;7.00;1.00;;;;;;5032590;28;20464;-76
2023/03/17 07:14:35;;;;;;;4.70;2.20;;;7.00;99.90;;;;;;5033133;28;20391;-76
2023/03/17 07:17:02;;;;;;;2.95;2.00;;;7.10;99.90;;;;;;5050979;22;20463;-82
2023/03/17 07:19:28;;;;;;;2.75;2.42;;;7.10;1.00;;;;;;5088399;28;20383;-81
2023/03/17 07:21:55;;;;;;;2.72;2.00;;;7.10;1.00;;;;;;5096026;28;20383;-83
2023/03/17 07:24:21;;;;;;;2.80;2.00;;;7.20;99.90;;;;;;5073298;28;20385;-83
2023/03/17 07:26:47;;;;;;;4.70;2.10;;;7.20;1.00;;;;;;5074190;28;20394;-84
2023/03/17 07:29:13;;;;;;;3.65;2.10;;;7.30;1.00;;;;;;5079115;28;20620;-82
2023/03/17 07:31:39;;;;;;;3.50;2.10;;;7.40;1.00;;;;;;5086004;28;20401;-82
2023/03/17 07:34:05;;;;;;;3.90;1.80;;;7.40;1.00;;;;;;5093362;28;20495;-82
2023/03/17 07:36:32;;;;;;;2.30;1.67;;;7.50;99.90;;;;;;5084690;28;20793;-83
2023/03/17 07:38:57;;;;;;;2.63;1.80;;;7.60;1.00;;;;;;5080391;28;20398;-85
2023/03/17 07:41:23;;;;;;;2.40;2.20;;;7.70;79.30;;;;;;5078333;28;20380;-85
2023/03/17 07:43:49;;;;;;;3.80;2.20;;;7.80;99.90;;;;;;5082228;28;20380;-85
2023/03/17 07:46:15;;;;;;;2.30;1.90;;;7.90;1.00;;;;;;5079689;28;20405;-85
2023/03/17 07:48:42;;;;;;;2.08;1.60;;;8.00;51.00;;;;;;5078198;28;20775;-84
2023/03/17 07:51:17;;;;;;;2.03;1.80;;;8.30;99.90;;;;;;5080978;28;20448;-85
2023/03/17 07:53:45;;;;;;;2.20;1.70;;;8.30;99.90;;;;;;5080864;28;20749;-85
2023/03/17 07:56:11;;;;;;;2.33;1.65;;;8.40;99.90;;;;;;5078991;28;20387;-85
2023/03/17 07:58:36;;;;;;;2.63;1.70;;;8.40;99.90;;;;;;5077275;28;20475;-85
2023/03/17 08:01:03;;;;;;;2.50;2.00;;;8.50;99.90;;;;;;5080070;28;20426;-84
2023/03/17 08:03:29;;;;;;;3.30;1.90;;;8.50;99.90;;;;;;5078090;28;20382;-85
2023/03/17 08:05:56;;;;;;;4.00;2.00;;;8.50;88.60;;;;;;5078210;28;20380;-85
2023/03/17 08:08:23;;;;;;;2.22;2.03;;;8.70;31.00;;;;;;5077658;28;20388;-85
2023/03/17 08:10:49;;;;;;;3.10;2.00;;;8.80;29.90;;;;;;5070916;28;20435;-85
2023/03/17 08:13:15;;;;;;;2.90;2.60;;;9.00;13.90;;;;;;5056906;28;20402;-84
2023/03/17 08:15:41;;;;;;;3.10;2.10;;;9.20;1.00;;;;;;5079133;28;20474;-84
2023/03/17 08:18:07;;;;;;;2.95;2.03;;;9.20;1.00;;;;;;5078413;28;20426;-85
2023/03/17 08:20:34;;;;;;;2.67;2.30;;;10.10;1.00;;;;;;5079768;28;20402;-84
2023/03/17 08:23:00;;;;;;;3.38;2.08;;;9.30;17.10;;;;;;5081144;28;20384;-83
2023/03/17 08:25:25;;;;;;;2.20;1.90;;;9.40;1.00;;;;;;5092173;28;20395;-83
2023/03/17 08:27:52;;;;;;;2.00;1.70;;;9.40;13.10;;;;;;5090608;28;20411;-83
2023/03/17 08:30:19;;;;;;;1.92;1.67;;;9.70;1.00;;;;;;5087040;28;20403;-84
2023/03/17 08:32:46;;;;;;;4.35;2.10;;;9.90;1.00;;;;;;5073540;28;20393;-84
2023/03/17 08:35:14;;;;;;;2.90;1.60;;;10.00;1.00;;;;;;5061900;28;20819;-84
2023/03/17 08:37:43;;;;;;;3.22;2.40;;;10.20;1.00;;;;;;5069315;28;20379;-84
2023/03/17 08:40:15;;;;;;;2.95;2.50;;;10.40;1.00;;;;;;5079545;28;20843;-85
2023/03/17 08:42:42;;;;;;;5.15;2.30;;;10.40;1.00;;;;;;5097134;28;20364;-85
2023/03/17 08:45:09;;;;;;;2.97;2.50;;;10.40;1.00;;;;;;5096937;28;20425;-85
2023/03/17 08:47:36;;;;;;;2.90;2.60;;;10.50;1.00;;;;;;5096270;28;20379;-84
2023/03/17 08:50:04;;;;;;;3.88;2.50;;;10.50;1.00;;;;;;5064365;28;20492;-84
2023/03/17 08:52:30;;;;;;;5.28;3.10;;;10.60;1.00;;;;;;5060235;28;20385;-85
2023/03/17 08:54:56;;;;;;;5.13;4.10;;;10.50;1.00;;;;;;5061942;28;20392;-85
2023/03/17 08:57:22;;;;;;;3.53;2.63;;;10.70;1.00;;;;;;5071133;28;20388;-85
2023/03/17 08:59:48;;;;;;;3.90;3.45;;;10.50;1.00;;;;;;5080908;28;20387;-85
2023/03/17 09:02:14;;;;;;;7.78;3.50;;;10.60;1.00;;;;;;5082512;28;20400;-83
2023/03/17 09:04:40;;;;;;;4.07;3.20;;;10.60;1.00;;;;;;5074019;28;20725;-83
2023/03/17 09:07:06;;;;;;;7.18;3.70;;;10.60;1.00;;;;;;5063871;28;20424;-82
2023/03/17 09:09:33;;;;;;;3.80;3.20;;;10.20;1.00;;;;;;5062392;28;20469;-84
2023/03/17 09:11:59;;;;;;;4.70;3.20;;;10.30;1.00;;;;;;5065068;28;20380;-84
2023/03/17 09:14:35;;;;;;;5.67;3.50;;;10.80;1.00;;;;;;5063430;28;20392;-85
2023/03/17 09:17:01;;;;;;;3.53;3.22;;;11.00;1.00;;;;;;5069783;28;20385;-84
2023/03/17 09:19:26;;;;;;;4.17;3.73;;;11.20;1.00;;;;;;5075664;28;20412;-83
2023/03/17 09:21:52;;;;;;;4.97;3.70;;;14.10;1.00;;;;;;5062973;28;20409;-82
2023/03/17 09:24:18;;;;;;;5.90;3.60;;;11.50;1.00;;;;;;5080722;28;20384;-84
2023/03/17 09:26:44;;;;;;;5.53;3.80;;;11.50;1.00;;;;;;5084323;28;20379;-83
2023/03/17 09:29:09;;;;;;;6.30;4.20;;;11.50;1.00;;;;;;5085650;28;20429;-84
2023/03/17 09:31:35;;;;;;;6.20;4.43;;;11.60;1.00;;;;;;5087221;28;20388;-84
2023/03/17 09:34:03;;;;;;;4.78;3.97;;;11.60;1.00;;;;;;5087218;28;20402;-83
2023/03/17 09:36:30;;;;;;;4.45;4.00;;;11.60;1.00;;;;;;5084797;28;20402;-84
2023/03/17 09:38:56;;;;;;;6.07;4.18;;;11.60;99.90;;;;;;5083099;28;20395;-84
2023/03/17 09:41:40;;;;;;;6.33;3.80;;;11.50;1.00;;;;;;5084914;28;20508;-85
2023/03/17 09:44:27;;;;;;;8.88;4.38;;;11.50;1.00;;;;;;5085642;28;20384;-84
2023/03/17 09:47:08;;;;;;;5.47;3.90;;;11.70;99.90;;;;;;5085866;28;20391;-84
2023/03/17 09:49:46;;;;;;;5.00;3.60;;;11.70;99.90;;;;;;5088615;28;20467;-84
2023/03/17 09:52:26;;;;;;;4.75;4.25;;;12.30;99.90;;;;;;5085761;28;20400;-84
2023/03/17 09:54:51;;;;;;;5.88;3.90;;;11.90;99.90;;;;;;5064685;28;20393;-85
2023/03/17 09:57:23;;;;;;;5.87;4.10;;;12.00;99.90;;;;;;5079880;28;20534;-85
2023/03/17 10:00:00;;;;;;;5.28;3.92;;;11.70;99.90;;;;;;5083288;28;20395;-84
2023/03/17 10:02:36;;;;;;;5.10;4.20;;;11.90;99.90;;;;;;5076598;28;20392;-85
2023/03/17 10:05:12;;;;;;;4.60;4.20;;;12.10;99.90;;;;;;5065979;28;20395;-84
2023/03/17 10:08:08;;;;;;;6.57;4.55;;;12.20;99.90;;;;;;5076386;28;20391;-84
2023/03/17 10:10:45;;;;;;;4.30;3.90;;;12.40;99.90;;;;;;5080534;28;20395;-80
2023/03/17 10:13:53;;;;;;;3.75;3.45;;;12.50;99.90;;;;;;5081220;28;20398;-86
2023/03/17 10:16:26;;;;;;;4.20;3.63;;;12.70;99.90;;;;;;5088217;28;20379;-84
2023/03/17 10:19:00;;;;;;;4.55;4.03;;;14.20;99.90;;;;;;5089600;28;20383;-84
2023/03/17 10:21:31;;;;;;;5.20;3.67;;;13.00;99.90;;;;;;5067675;28;20384;-85
2023/03/17 10:23:58;;;;;;;5.40;3.55;;;13.00;99.90;;;;;;5072557;28;20396;-85
2023/03/17 10:26:38;;;;;;;3.53;3.20;;;13.30;99.90;;;;;;5066709;28;20381;-84
2023/03/17 10:29:11;;;;;;;4.85;3.90;;;13.90;99.90;;;;;;5072511;28;20428;-86
2023/03/17 10:31:38;;;;;;;5.55;3.50;;;13.60;99.90;;;;;;5068620;28;20382;-85
2023/03/17 10:34:26;;;;;;;6.30;3.85;;;13.10;99.90;;;;;;5065859;28;20396;-83
2023/03/17 10:37:06;;;;;;;4.83;3.93;;;13.90;99.90;;;;;;5087210;28;20416;-82
2023/03/17 10:39:43;;;;;;;6.25;3.47;;;13.70;99.90;;;;;;5084521;28;20376;-79
2023/03/17 10:42:14;;;;;;;4.75;3.70;;;13.70;99.90;;;;;;5083916;28;20387;-81
2023/03/17 10:44:51;;;;;;;5.80;3.63;;;13.80;99.90;;;;;;5083867;28;20865;-82
2023/03/17 10:47:52;;;;;;;5.63;3.60;;;13.70;99.90;;;;;;5082678;28;20384;-85
2023/03/17 10:50:27;;;;;;;3.53;3.20;;;13.90;99.90;;;;;;5063731;28;20468;-85
2023/03/17 10:53:03;;;;;;;3.40;3.10;;;14.00;99.90;;;;;;5077723;28;20395;-85
2023/03/17 10:55:37;;;;;;;4.13;3.60;;;14.10;99.90;;;;;;5060650;28;20847;-85
2023/03/17 10:58:20;;;;;;;3.60;3.30;;;14.30;99.90;;;;;;5085863;28;20395;-85
2023/03/17 11:00:55;;;;;;;5.80;3.80;;;14.30;99.90;;;;;;5093359;28;20475;-85
2023/03/17 11:03:24;;;;;;;5.15;3.20;;;14.80;99.90;;;;;;5085588;28;20754;-85
2023/03/17 11:06:08;;;;;;;5.50;3.90;;;15.00;99.90;;;;;;5084838;28;20387;-85
2023/03/17 11:08:40;;;;;;;4.18;3.58;;;15.20;99.90;;;;;;5083677;28;20418;-85
2023/03/17 11:11:28;;;;;;;4.83;3.83;;;15.40;99.90;;;;;;5085145;28;20376;-84
2023/03/17 11:14:02;;;;;;;6.00;3.60;;;15.70;99.90;;;;;;5083888;28;20372;-85
2023/03/17 11:16:28;;;;;;;4.18;3.47;;;15.90;99.90;;;;;;5073071;28;20843;-85
2023/03/17 11:18:56;;;;;;;4.33;3.30;;;16.20;99.90;;;;;;5064093;28;20409;-85
2023/03/17 11:21:28;;;;;;;3.47;3.13;;;16.30;99.90;;;;;;5076157;28;20388;-85
2023/03/17 11:24:08;;;;;;;4.50;2.70;;;16.30;74.00;;;;;;5081266;28;20376;-85
2023/03/17 11:26:47;;;;;;;5.28;3.00;;;16.00;58.30;;;;;;5081054;28;20379;-85
2023/03/17 11:29:25;;;;;;;3.10;2.80;;;16.30;62.10;;;;;;5082096;28;20438;-86
2023/03/17 11:32:36;;;;;;;3.90;2.47;;;16.50;58.10;;;;;;5080522;28;20467;-85
2023/03/17 11:35:30;;;;;;;2.53;1.90;;;16.60;47.50;;;;;;5070122;28;20377;-87
2023/03/17 11:38:08;;;;;;;3.10;2.40;;;16.40;34.70;;;;;;5078169;28;20389;-85
2023/03/17 11:40:56;;;;;;;2.72;2.20;;;16.20;35.80;;;;;;5077749;28;20417;-85
2023/03/17 11:43:22;;;;;;;3.25;2.50;;;16.40;35.80;;;;;;5064277;28;20440;-86
2023/03/17 11:46:04;;;;;;;3.58;2.15;;;16.70;37.00;;;;;;5062464;28;20396;-86
2023/03/17 11:48:38;;;;;;;2.83;2.10;;;16.70;37.90;;;;;;5061207;28;20724;-85
2023/03/17 11:51:26;;;;;;;4.45;2.15;;;16.90;34.50;;;;;;5061081;28;20413;-86
2023/03/17 11:54:23;;;;;;;2.60;2.08;;;17.00;33.10;;;;;;5069276;28;20532;-86
2023/03/17 11:56:53;;;;;;;4.30;2.00;;;17.50;31.90;;;;;;5068795;28;20433;-85
2023/03/17 11:59:18;;;;;;;3.50;2.40;;;17.90;25.90;;;;;;5080418;28;20467;-86
2023/03/17 12:01:58;;;;;;;3.85;2.50;;;18.20;29.30;;;;;;5090371;28;20399;-86
2023/03/17 12:04:34;;;;;;;3.70;2.30;;;17.70;27.30;;;;;;5085386;28;20376;-85
2023/03/17 12:07:11;;;;;;;2.97;2.28;;;17.90;28.20;;;;;;5082560;28;20388;-86
2023/03/17 12:09:45;;;;;;;2.60;2.10;;;18.20;26.00;;;;;;5083469;28;20769;-84
2023/03/17 12:12:14;;;;;;;2.05;1.73;;;18.30;24.50;;;;;;5080136;28;20395;-84
2023/03/17 12:14:47;;;;;;;2.97;1.90;;;18.70;17.50;;;;;;5062516;28;20393;-83
2023/03/17 12:17:22;;;;;;;2.20;2.00;;;18.60;20.50;;;;;;5061580;28;20449;-85
2023/03/17 12:20:08;;;;;;;4.10;1.90;;;18.80;16.90;;;;;;5068809;28;20414;-84
2023/03/17 12:22:41;;;;;;;4.05;2.10;;;18.70;11.70;;;;;;5070219;28;20456;-85
2023/03/17 12:25:18;;;;;;;3.70;1.90;;;19.20;8.40;;;;;;5083391;28;20395;-85
2023/03/17 12:27:57;;;;;;;3.72;1.88;;;18.80;5.30;;;;;;5081832;28;20410;-85
2023/03/17 12:30:36;;;;;;;1.83;1.70;;;18.40;1.00;;;;;;5072756;28;20446;-85
2023/03/17 12:33:44;;;;;;;1.90;1.80;;;19.40;1.10;;;;;;5078863;28;20404;-85
2023/03/17 12:36:16;;;;;;;4.30;1.90;;;19.50;1.60;;;;;;5078510;28;20388;-85
2023/03/17 12:38:48;;;;;;;2.10;1.90;;;19.90;1.00;;;;;;5075858;28;20407;-85
2023/03/17 12:41:55;;;;;;;3.00;2.08;;;20.00;1.00;;;;;;5059319;28;20389;-85
2023/03/17 12:44:38;;;;;;;3.70;1.80;;;19.50;1.00;;;;;;5057519;28;20397;-85
2023/03/17 12:47:28;;;;;;;2.60;2.10;;;18.90;1.00;;;;;;5058784;28;20389;-85
2023/03/17 12:50:12;;;;;;;2.35;1.83;;;18.90;1.00;;;;;;5056788;28;20404;-85
2023/03/17 12:52:40;;;;;;;3.70;2.20;;;19.30;1.00;;;;;;5055781;28;20771;-85
2023/03/17 12:55:13;;;;;;;2.30;1.75;;;19.70;1.00;;;;;;5053456;28;20384;-85
2023/03/17 12:57:44;;;;;;;1.88;1.67;;;19.30;1.00;;;;;;5068189;28;20376;-85
2023/03/17 13:00:28;;;;;;;2.23;2.03;;;19.90;1.00;;;;;;5074674;28;20874;-85
2023/03/17 13:03:23;;;;;;;2.60;2.40;;;20.10;1.00;;;;;;5075654;28;20896;-85
2023/03/17 13:05:52;;;;;;;3.47;2.63;;;20.30;1.00;;;;;;5073681;28;20437;-85
2023/03/17 13:08:33;;;;;;;2.97;2.70;;;20.10;1.00;;;;;;5060245;28;20421;-86
2023/03/17 13:11:18;;;;;;;3.93;3.50;;;20.30;1.00;;;;;;5074766;28;20463;-86
2023/03/17 13:13:53;;;;;;;3.15;2.70;;;19.70;1.00;;;;;;5076476;28;20898;-86